Time;durP1;ratioP1;P1;durP2;ratioP2;P2;SDS_P1;SDS_P2;PMS_P1;PMS_P2;Temp;Humidity;BMP_temperature;BMP_pressure;BME280_temperature;BME280_humidity;BME280_pressure;Samples;Min_cycle;Max_cycle;Signal;HPM_P1;HPM_P2
2023/08/25 00:00:40;;;;;;;;;;;;;;;19.19;100.00;95305.47;5114911;28;1007;-58
2023/08/25 00:03:06;;;;;;;;;;;;;;;19.37;100.00;95312.09;5114642;28;1036;-57
2023/08/25 00:05:36;;;;;;;;;;;;;;;19.47;100.00;95310.63;5114386;28;1996;-58
2023/08/25 00:08:02;;;;;;;;;;;;;;;19.56;100.00;95315.81;5114859;28;979;-58
2023/08/25 00:10:28;;;;;;;;;;;;;;;19.59;100.00;95315.41;5114684;28;981;-58
2023/08/25 00:12:54;;;;;;;;;;;;;;;19.70;100.00;95317.44;5114498;28;1075;-58
2023/08/25 00:15:20;;;;;;;;;;;;;;;19.66;100.00;95318.94;5114549;28;1032;-58
2023/08/25 00:17:46;;;;;;;;;;;;;;;19.61;100.00;95326.84;5114649;28;1047;-58
2023/08/25 00:20:12;;;;;;;;;;;;;;;19.41;100.00;95322.31;5123114;27;1494;-57
2023/08/25 00:22:38;;;;;;;;;;;;;;;19.35;100.00;95325.03;5134808;27;1083;-58
2023/08/25 00:25:05;;;;;;;;;;;;;;;19.26;100.00;95327.97;5134870;27;1194;-58
2023/08/25 00:27:31;;;;;;;;;;;;;;;19.43;100.00;95320.22;5134873;27;1992;-57
2023/08/25 00:29:56;;;;;;;;;;;;;;;19.41;100.00;95316.91;5134953;27;973;-58
2023/08/25 00:32:22;;;;;;;;;;;;;;;19.48;100.00;95312.31;5134103;27;1020;-58
2023/08/25 00:34:48;;;;;;;;;;;;;;;19.45;100.00;95307.28;5134879;27;968;-58
2023/08/25 00:37:14;;;;;;;;;;;;;;;19.41;100.00;95310.66;5134813;27;1056;-57
2023/08/25 00:39:40;;;;;;;;;;;;;;;19.37;100.00;95306.69;5134670;27;995;-58
2023/08/25 00:42:06;;;;;;;;;;;;;;;19.26;99.96;95314.44;5134577;27;1086;-58
2023/08/25 00:44:32;;;;;;;;;;;;;;;18.99;100.00;95310.06;5134387;27;949;-58
2023/08/25 00:46:59;;;;;;;;;;;;;;;18.97;100.00;95312.16;5134387;27;1913;-58
2023/08/25 00:49:25;;;;;;;;;;;;;;;19.09;100.00;95310.50;5134396;27;1044;-58
2023/08/25 00:51:52;;;;;;;;;;;;;;;19.19;100.00;95297.34;5134459;27;1044;-58
2023/08/25 00:54:22;;;;;;;;;;;;;;;19.26;100.00;95295.47;5134628;27;976;-57
2023/08/25 00:56:50;;;;;;;;;;;;;;;19.28;100.00;95301.50;5134368;28;1102;-58
2023/08/25 00:59:16;;;;;;;;;;;;;;;19.04;100.00;95302.97;5134240;28;1118;-58
2023/08/25 01:01:44;;;;;;;;;;;;;;;18.88;100.00;95309.69;5119020;28;2899;-58
2023/08/25 01:04:10;;;;;;;;;;;;;;;18.90;100.00;95313.00;5113656;28;1040;-58
2023/08/25 01:06:37;;;;;;;;;;;;;;;18.99;100.00;95307.38;5113683;28;1897;-58
2023/08/25 01:09:04;;;;;;;;;;;;;;;19.23;100.00;95314.84;5113829;28;1052;-58
2023/08/25 01:11:33;;;;;;;;;;;;;;;19.39;100.00;95315.44;5113892;28;1072;-58
2023/08/25 01:14:08;;;;;;;;;;;;;;;19.32;100.00;95318.16;5113975;28;968;-58
2023/08/25 01:16:42;;;;;;;;;;;;;;;19.27;100.00;95321.53;5113759;28;1043;-57
2023/08/25 01:19:20;;;;;;;;;;;;;;;19.16;100.00;95326.72;5113636;28;1127;-57
2023/08/25 01:21:51;;;;;;;;;;;;;;;18.79;100.00;95321.72;5113665;28;2001;-57
2023/08/25 01:24:22;;;;;;;;;;;;;;;18.72;100.00;95319.03;5113823;28;980;-57
2023/08/25 01:26:49;;;;;;;;;;;;;;;18.63;100.00;95314.00;5113656;28;1914;-57
2023/08/25 01:29:15;;;;;;;;;;;;;;;18.53;100.00;95315.28;5113624;28;1048;-58
2023/08/25 01:31:41;;;;;;;;;;;;;;;18.58;100.00;95314.63;5113822;28;1007;-58
2023/08/25 01:34:07;;;;;;;;;;;;;;;18.73;100.00;95317.97;5113775;28;987;-58
2023/08/25 01:36:37;;;;;;;;;;;;;;;18.89;100.00;95314.06;5113349;28;1017;-57
2023/08/25 01:39:13;;;;;;;;;;;;;;;19.04;100.00;95318.41;5113701;28;1061;-58
2023/08/25 01:41:46;;;;;;;;;;;;;;;18.93;100.00;95322.59;5113658;28;1031;-58
2023/08/25 01:44:14;;;;;;;;;;;;;;;18.96;100.00;95319.47;5113876;28;1120;-58
2023/08/25 01:46:44;;;;;;;;;;;;;;;18.94;100.00;95321.56;5117104;28;1987;-56
2023/08/25 01:49:13;;;;;;;;;;;;;;;18.94;100.00;95313.44;5117017;28;2835;-57
2023/08/25 01:51:39;;;;;;;;;;;;;;;18.85;100.00;95314.69;5117408;28;957;-58
2023/08/25 01:54:05;;;;;;;;;;;;;;;18.86;100.00;95319.06;5117345;28;1040;-58
2023/08/25 01:56:31;;;;;;;;;;;;;;;18.80;100.00;95315.31;5117030;28;1118;-57
2023/08/25 01:58:57;;;;;;;;;;;;;;;18.89;99.74;95315.91;5117050;28;1044;-57
2023/08/25 02:01:23;;;;;;;;;;;;;;;18.82;100.00;95315.06;5116979;28;1028;-56
2023/08/25 02:03:49;;;;;;;;;;;;;;;18.73;100.00;95306.31;5116866;28;1055;-58
2023/08/25 02:06:15;;;;;;;;;;;;;;;18.52;100.00;95305.47;5117068;28;1989;-58
2023/08/25 02:08:41;;;;;;;;;;;;;;;18.38;100.00;95313.78;5117044;28;1019;-58
2023/08/25 02:11:07;;;;;;;;;;;;;;;18.46;100.00;95314.41;5117011;28;952;-58
2023/08/25 02:13:33;;;;;;;;;;;;;;;18.66;100.00;95313.59;5116680;28;1048;-59
2023/08/25 02:15:59;;;;;;;;;;;;;;;18.89;100.00;95321.34;5116957;28;961;-59
2023/08/25 02:18:25;;;;;;;;;;;;;;;18.99;99.87;95323.63;5116647;28;1044;-59
2023/08/25 02:20:51;;;;;;;;;;;;;;;19.04;100.00;95323.84;5130940;27;1181;-59
2023/08/25 02:23:17;;;;;;;;;;;;;;;19.06;100.00;95319.84;5137321;27;1019;-58
2023/08/25 02:25:43;;;;;;;;;;;;;;;18.97;100.00;95320.28;5137332;27;1910;-57
2023/08/25 02:28:08;;;;;;;;;;;;;;;18.77;100.00;95325.69;5136992;27;1032;-59
2023/08/25 02:30:34;;;;;;;;;;;;;;;18.60;100.00;95327.97;5136907;27;1955;-58
2023/08/25 02:33:00;;;;;;;;;;;;;;;18.45;100.00;95328.97;5137288;27;957;-58
2023/08/25 02:35:26;;;;;;;;;;;;;;;18.37;100.00;95326.47;5136008;27;2980;-58
2023/08/25 02:37:56;;;;;;;;;;;;;;;18.48;100.00;95330.47;5137055;27;1112;-59
2023/08/25 02:40:22;;;;;;;;;;;;;;;18.53;100.00;95328.81;5137007;27;1071;-58
2023/08/25 02:42:49;;;;;;;;;;;;;;;18.59;100.00;95324.44;5136740;27;1068;-57
2023/08/25 02:45:15;;;;;;;;;;;;;;;18.61;100.00;95318.78;5136763;27;1088;-58
2023/08/25 02:47:41;;;;;;;;;;;;;;;18.75;100.00;95322.38;5136615;27;1975;-59
2023/08/25 02:50:07;;;;;;;;;;;;;;;18.73;100.00;95333.41;5136569;27;1028;-60
2023/08/25 02:52:33;;;;;;;;;;;;;;;18.74;100.00;95332.34;5136665;27;1030;-60
2023/08/25 02:54:59;;;;;;;;;;;;;;;18.62;100.00;95326.72;5136318;27;1099;-60
2023/08/25 02:57:25;;;;;;;;;;;;;;;18.44;100.00;95335.44;5118179;27;1032;-61
2023/08/25 02:59:51;;;;;;;;;;;;;;;18.23;100.00;95327.47;5135042;27;3012;-60
2023/08/25 03:02:16;;;;;;;;;;;;;;;18.32;100.00;95326.25;5136278;27;1051;-60
2023/08/25 03:04:43;;;;;;;;;;;;;;;18.36;100.00;95324.78;5136582;27;1035;-57
2023/08/25 03:07:09;;;;;;;;;;;;;;;18.20;100.00;95328.72;5136563;27;1901;-58
2023/08/25 03:09:35;;;;;;;;;;;;;;;18.29;100.00;95329.38;5136484;27;1284;-57
2023/08/25 03:12:01;;;;;;;;;;;;;;;18.38;100.00;95330.00;5136454;27;1007;-58
2023/08/25 03:14:27;;;;;;;;;;;;;;;18.50;100.00;95339.22;5135032;27;2864;-57
2023/08/25 03:16:53;;;;;;;;;;;;;;;18.51;100.00;95344.41;5136384;27;1055;-57
2023/08/25 03:19:19;;;;;;;;;;;;;;;18.49;100.00;95348.34;5135844;27;1145;-58
2023/08/25 03:21:45;;;;;;;;;;;;;;;18.38;100.00;95349.78;5117805;27;1064;-57
2023/08/25 03:24:11;;;;;;;;;;;;;;;18.19;100.00;95347.88;5135797;27;1020;-57
2023/08/25 03:26:37;;;;;;;;;;;;;;;18.26;100.00;95351.44;5135784;27;1906;-57
2023/08/25 03:29:03;;;;;;;;;;;;;;;18.46;100.00;95346.91;5136046;27;1032;-57
2023/08/25 03:31:29;;;;;;;;;;;;;;;18.41;100.00;95346.69;5135765;27;1048;-58
2023/08/25 03:33:55;;;;;;;;;;;;;;;18.47;100.00;95350.44;5135975;27;1041;-58
2023/08/25 03:36:21;;;;;;;;;;;;;;;18.44;100.00;95345.44;5135832;27;1045;-57
2023/08/25 03:38:47;;;;;;;;;;;;;;;18.41;100.00;95345.84;5135854;27;1036;-58
2023/08/25 03:41:13;;;;;;;;;;;;;;;18.34;100.00;95351.25;5135482;27;1083;-58
2023/08/25 03:43:39;;;;;;;;;;;;;;;18.30;100.00;95344.56;5135521;27;1032;-58
2023/08/25 03:46:05;;;;;;;;;;;;;;;18.26;100.00;95348.72;5135428;27;1972;-58
2023/08/25 03:48:31;;;;;;;;;;;;;;;18.06;100.00;95360.34;5135571;27;964;-58
2023/08/25 03:50:57;;;;;;;;;;;;;;;18.21;100.00;95353.91;5135662;27;966;-58
2023/08/25 03:53:23;;;;;;;;;;;;;;;18.40;100.00;95358.56;5135261;27;1036;-59
2023/08/25 03:55:48;;;;;;;;;;;;;;;18.51;100.00;95355.22;5135356;27;1091;-60
2023/08/25 03:58:14;;;;;;;;;;;;;;;18.43;100.00;95363.53;5135211;27;1028;-59
2023/08/25 04:00:40;;;;;;;;;;;;;;;18.29;100.00;95364.56;5135352;27;946;-57
2023/08/25 04:03:07;;;;;;;;;;;;;;;18.23;100.00;95354.53;5135229;27;1049;-58
2023/08/25 04:05:33;;;;;;;;;;;;;;;18.46;100.00;95351.50;5134979;27;1902;-58
2023/08/25 04:07:59;;;;;;;;;;;;;;;18.67;99.21;95347.78;5134535;27;1000;-58
2023/08/25 04:10:25;;;;;;;;;;;;;;;18.73;99.21;95344.22;5135082;27;1052;-58
2023/08/25 04:12:51;;;;;;;;;;;;;;;18.53;100.00;95346.91;5134997;27;1036;-58
2023/08/25 04:15:21;;;;;;;;;;;;;;;18.52;100.00;95359.63;5134993;27;1020;-57
2023/08/25 04:17:47;;;;;;;;;;;;;;;18.51;100.00;95357.09;5134969;27;1032;-58
2023/08/25 04:20:14;;;;;;;;;;;;;;;18.70;100.00;95355.47;5126132;27;1137;-57
2023/08/25 04:22:43;;;;;;;;;;;;;;;18.85;99.42;95353.41;5096546;28;978;-58
2023/08/25 04:25:09;;;;;;;;;;;;;;;18.77;100.00;95358.19;5096519;28;988;-57
2023/08/25 04:27:36;;;;;;;;;;;;;;;18.70;100.00;95360.88;5114260;28;1993;-59
2023/08/25 04:30:03;;;;;;;;;;;;;;;18.53;100.00;95357.72;5114205;28;1012;-58
2023/08/25 04:32:29;;;;;;;;;;;;;;;18.38;100.00;95362.50;5114365;28;1012;-58
2023/08/25 04:34:55;;;;;;;;;;;;;;;18.63;100.00;95374.44;5114320;28;1019;-58
2023/08/25 04:37:21;;;;;;;;;;;;;;;19.17;100.00;95380.75;5114200;28;1044;-58
2023/08/25 04:39:47;;;;;;;;;;;;;;;19.77;98.25;95385.25;5096175;28;1566;-57
2023/08/25 04:42:13;;;;;;;;;;;;;;;20.21;95.93;95397.25;5114027;28;1015;-58
2023/08/25 04:44:39;;;;;;;;;;;;;;;20.53;94.59;95381.84;5114300;28;957;-58
2023/08/25 04:47:05;;;;;;;;;;;;;;;20.81;93.03;95377.91;5095645;28;1918;-58
2023/08/25 04:49:31;;;;;;;;;;;;;;;21.11;91.25;95382.72;5114203;28;1007;-58
2023/08/25 04:51:58;;;;;;;;;;;;;;;21.23;91.07;95379.06;5096091;28;1521;-57
2023/08/25 04:54:24;;;;;;;;;;;;;;;20.96;91.75;95383.88;5113725;28;1111;-58
2023/08/25 04:56:50;;;;;;;;;;;;;;;20.77;92.19;95388.41;5113871;28;1033;-58
2023/08/25 04:59:16;;;;;;;;;;;;;;;20.53;94.85;95379.13;5113766;28;1092;-57
2023/08/25 05:01:42;;;;;;;;;;;;;;;20.41;96.77;95381.69;5113751;28;987;-57
2023/08/25 05:04:08;;;;;;;;;;;;;;;20.16;99.37;95369.91;5113815;28;1072;-58
2023/08/25 05:06:35;;;;;;;;;;;;;;;20.20;100.00;95392.84;5113777;28;2388;-58
2023/08/25 05:09:01;;;;;;;;;;;;;;;20.15;100.00;95388.06;5113911;28;974;-57
2023/08/25 05:11:27;;;;;;;;;;;;;;;20.26;100.00;95387.41;5113760;28;957;-57
2023/08/25 05:13:53;;;;;;;;;;;;;;;20.40;100.00;95384.63;5113669;28;1091;-57
2023/08/25 05:16:19;;;;;;;;;;;;;;;20.55;100.00;95389.78;5113940;28;973;-57
2023/08/25 05:18:45;;;;;;;;;;;;;;;20.69;99.75;95390.53;5097303;28;975;-57
2023/08/25 05:21:12;;;;;;;;;;;;;;;20.78;98.99;95405.53;5135134;27;1334;-56
2023/08/25 05:23:41;;;;;;;;;;;;;;;20.82;98.97;95395.91;5138579;27;1060;-57
2023/08/25 05:26:08;;;;;;;;;;;;;;;21.14;96.71;95404.03;5138835;27;2062;-57
2023/08/25 05:28:34;;;;;;;;;;;;;;;21.32;96.61;95406.78;5138155;27;1087;-57
2023/08/25 05:31:00;;;;;;;;;;;;;;;21.40;96.46;95411.16;5138142;27;1106;-57
2023/08/25 05:33:26;;;;;;;;;;;;;;;21.32;97.39;95406.78;5118898;27;2794;-57
2023/08/25 05:35:52;;;;;;;;;;;;;;;21.22;98.60;95412.75;5138332;27;933;-57
2023/08/25 05:38:18;;;;;;;;;;;;;;;21.34;97.26;95414.75;5119932;27;1019;-57
2023/08/25 05:40:44;;;;;;;;;;;;;;;21.50;96.70;95419.66;5138052;27;1102;-57
2023/08/25 05:43:10;;;;;;;;;;;;;;;21.65;95.30;95422.03;5138324;27;1035;-58
2023/08/25 05:45:35;;;;;;;;;;;;;;;21.95;92.63;95416.72;5119429;27;1988;-58
2023/08/25 05:48:02;;;;;;;;;;;;;;;21.95;93.51;95422.16;5119971;27;1051;-57
2023/08/25 05:50:28;;;;;;;;;;;;;;;22.01;94.59;95415.81;5137770;27;1036;-57
2023/08/25 05:52:54;;;;;;;;;;;;;;;22.10;91.12;95416.34;5137773;27;1115;-58
2023/08/25 05:55:20;;;;;;;;;;;;;;;22.33;90.12;95417.56;5119722;27;965;-57
2023/08/25 05:57:46;;;;;;;;;;;;;;;22.31;91.07;95409.63;5137697;27;1036;-57
2023/08/25 06:00:13;;;;;;;;;;;;;;;22.33;92.39;95406.66;5137488;27;992;-57
2023/08/25 06:02:40;;;;;;;;;;;;;;;22.32;91.29;95413.19;5137815;27;1043;-57
2023/08/25 06:05:06;;;;;;;;;;;;;;;22.33;92.78;95412.97;5137522;27;1083;-57
2023/08/25 06:09:25;;;;;;;;;;;;;;;22.57;92.56;95410.34;5116890;27;1302352;-58
2023/08/25 06:11:53;;;;;;;;;;;;;;;22.75;92.22;95395.84;5152802;27;977;-58
2023/08/25 06:14:19;;;;;;;;;;;;;;;22.83;90.37;95397.44;5152435;27;1048;-58
2023/08/25 06:16:45;;;;;;;;;;;;;;;22.92;89.44;95398.75;5152321;27;1016;-58
2023/08/25 06:19:12;;;;;;;;;;;;;;;23.04;89.75;95394.19;5145077;27;2749;-58
2023/08/25 06:21:38;;;;;;;;;;;;;;;23.07;88.68;95392.88;5152616;27;1015;-58
2023/08/25 06:24:04;;;;;;;;;;;;;;;23.27;87.52;95393.41;5134133;27;1032;-57
2023/08/25 06:26:30;;;;;;;;;;;;;;;23.47;86.89;95393.06;5152147;27;1083;-57
2023/08/25 06:28:56;;;;;;;;;;;;;;;23.56;87.04;95393.53;5152124;27;1992;-57
2023/08/25 06:31:22;;;;;;;;;;;;;;;23.43;87.83;95399.22;5151981;27;1056;-58
2023/08/25 06:33:48;;;;;;;;;;;;;;;23.54;85.23;95399.25;5152051;27;1060;-58
2023/08/25 06:36:14;;;;;;;;;;;;;;;23.64;86.14;95401.41;5152152;27;1030;-57
2023/08/25 06:38:40;;;;;;;;;;;;;;;23.70;86.97;95405.06;5152005;27;1079;-57
2023/08/25 06:41:06;;;;;;;;;;;;;;;23.64;86.85;95397.81;5151898;27;1036;-58
2023/08/25 06:43:32;;;;;;;;;;;;;;;23.90;87.33;95399.25;5150485;27;2474;-58
2023/08/25 06:45:58;;;;;;;;;;;;;;;23.88;86.73;95398.69;5152142;27;959;-58
2023/08/25 06:48:25;;;;;;;;;;;;;;;24.07;86.15;95399.38;5151919;27;2008;-57
2023/08/25 06:50:51;;;;;;;;;;;;;;;23.92;86.00;95402.59;5152068;27;956;-58
2023/08/25 06:53:17;;;;;;;;;;;;;;;24.01;86.09;95401.16;5151608;27;1068;-58
2023/08/25 06:55:43;;;;;;;;;;;;;;;23.99;85.53;95397.00;5150219;27;2456;-57
2023/08/25 06:58:09;;;;;;;;;;;;;;;23.97;86.31;95392.59;5151567;27;1020;-57
2023/08/25 07:00:35;;;;;;;;;;;;;;;24.10;87.68;95387.97;5151710;27;1007;-57
2023/08/25 07:03:03;;;;;;;;;;;;;;;24.15;85.87;95391.66;5151393;27;1039;-57
2023/08/25 07:05:29;;;;;;;;;;;;;;;24.39;85.47;95390.75;5151394;27;1024;-57
2023/08/25 07:07:55;;;;;;;;;;;;;;;24.57;86.27;95387.03;5136453;27;2479;-57
2023/08/25 07:10:21;;;;;;;;;;;;;;;24.61;86.16;95375.38;5129190;28;1277;-57
2023/08/25 07:12:47;;;;;;;;;;;;;;;24.84;84.35;95385.38;5130543;28;1095;-57
2023/08/25 07:15:13;;;;;;;;;;;;;;;24.74;83.44;95380.56;5130517;28;1000;-57
2023/08/25 07:17:39;;;;;;;;;;;;;;;24.71;84.70;95378.28;5130742;28;995;-57
2023/08/25 07:20:06;;;;;;;;;;;;;;;24.91;84.51;95382.50;5128673;27;1095;-57
2023/08/25 07:22:32;;;;;;;;;;;;;;;25.21;82.60;95387.69;5119318;27;1029;-57
2023/08/25 07:24:58;;;;;;;;;;;;;;;25.45;81.11;95379.34;5137359;27;961;-57
2023/08/25 07:27:24;;;;;;;;;;;;;;;25.47;81.91;95393.59;5137308;27;1909;-57
2023/08/25 07:29:53;;;;;;;;;;;;;;;25.30;80.92;95380.75;5137065;27;1008;-57
2023/08/25 07:32:19;;;;;;;;;;;;;;;25.52;80.17;95389.03;5137362;27;1192;-58
2023/08/25 07:34:46;;;;;;;;;;;;;;;25.81;80.12;95393.59;5137305;27;971;-58
2023/08/25 07:37:12;;;;;;;;;;;;;;;25.97;78.84;95387.28;5137195;27;1056;-57
2023/08/25 07:39:41;;;;;;;;;;;;;;;25.86;79.13;95393.66;5136963;27;1088;-57
2023/08/25 07:42:08;;;;;;;;;;;;;;;26.02;80.57;95389.25;5136937;27;1076;-57
2023/08/25 07:44:35;;;;;;;;;;;;;;;26.14;80.10;95383.66;5124182;27;2513;-58
2023/08/25 07:47:01;;;;;;;;;;;;;;;26.27;79.42;95386.88;5116255;28;1103;-57
2023/08/25 07:49:27;;;;;;;;;;;;;;;26.23;78.83;95393.94;5115910;28;1905;-57
2023/08/25 07:51:53;;;;;;;;;;;;;;;26.40;78.05;95395.78;5098166;28;1107;-57
2023/08/25 07:54:19;;;;;;;;;;;;;;;26.54;77.41;95383.38;5115916;28;1044;-57
2023/08/25 07:56:45;;;;;;;;;;;;;;;26.65;77.39;95387.06;5117823;27;2412;-57
2023/08/25 07:59:11;;;;;;;;;;;;;;;26.96;75.93;95381.91;5116187;28;1017;-57
2023/08/25 08:01:38;;;;;;;;;;;;;;;26.84;76.25;95380.16;5116213;28;1011;-57
2023/08/25 08:04:04;;;;;;;;;;;;;;;27.03;75.14;95374.31;5115890;28;1032;-57
2023/08/25 08:06:30;;;;;;;;;;;;;;;27.36;74.65;95370.53;5115930;28;990;-57
2023/08/25 08:08:56;;;;;;;;;;;;;;;27.52;73.13;95370.66;5097535;28;1993;-57
2023/08/25 08:11:22;;;;;;;;;;;;;;;27.66;73.62;95374.63;5097902;28;1017;-56
2023/08/25 08:13:48;;;;;;;;;;;;;;;27.88;71.85;95368.16;5115679;28;1044;-56
2023/08/25 08:16:14;;;;;;;;;;;;;;;27.93;72.14;95366.31;5115546;28;1040;-57
2023/08/25 08:18:40;;;;;;;;;;;;;;;27.94;72.64;95367.13;5115525;28;1102;-56
2023/08/25 08:21:06;;;;;;;;;;;;;;;28.11;71.98;95373.25;5132113;27;1138;-57
2023/08/25 08:23:32;;;;;;;;;;;;;;;28.05;71.93;95368.84;5136118;27;1031;-57
2023/08/25 08:25:58;;;;;;;;;;;;;;;28.16;70.15;95375.22;5136272;27;1016;-57
2023/08/25 08:28:24;;;;;;;;;;;;;;;28.18;71.62;95362.84;5135808;27;1914;-57
2023/08/25 08:30:50;;;;;;;;;;;;;;;28.20;71.66;95359.84;5135354;27;1070;-57
2023/08/25 08:33:16;;;;;;;;;;;;;;;28.40;73.60;95359.09;5136006;27;958;-57
2023/08/25 08:35:43;;;;;;;;;;;;;;;28.62;70.90;95354.25;5136056;27;1053;-57
2023/08/25 08:38:09;;;;;;;;;;;;;;;28.64;71.58;95354.00;5136105;27;1040;-56
2023/08/25 08:40:35;;;;;;;;;;;;;;;28.67;68.54;95353.47;5135728;27;1256;-57
2023/08/25 08:43:03;;;;;;;;;;;;;;;28.90;69.34;95354.91;5135653;27;1088;-57
2023/08/25 08:45:37;;;;;;;;;;;;;;;28.87;68.14;95349.09;5135533;27;1028;-57
2023/08/25 08:48:07;;;;;;;;;;;;;;;28.85;67.10;95354.88;5135527;27;1906;-57
2023/08/25 08:50:33;;;;;;;;;;;;;;;28.93;64.31;95351.59;5135807;27;1071;-57
2023/08/25 08:53:00;;;;;;;;;;;;;;;29.26;64.37;95354.16;5135534;27;977;-57
2023/08/25 08:55:26;;;;;;;;;;;;;;;29.45;64.03;95357.19;5135329;27;1027;-57
2023/08/25 08:57:52;;;;;;;;;;;;;;;29.52;62.05;95342.03;5135409;27;1036;-57
2023/08/25 09:00:19;;;;;;;;;;;;;;;29.62;61.78;95343.13;5135232;27;1079;-57
2023/08/25 09:02:50;;;;;;;;;;;;;;;29.83;62.60;95339.28;5135574;27;1010;-57
2023/08/25 09:05:21;;;;;;;;;;;;;;;29.73;61.47;95337.34;5135497;27;938;-57
2023/08/25 09:07:52;;;;;;;;;;;;;;;29.75;62.11;95329.63;5135245;27;1909;-57
2023/08/25 09:10:18;;;;;;;;;;;;;;;29.93;57.61;95338.41;5134888;27;1262;-57
2023/08/25 09:12:44;;;;;;;;;;;;;;;30.13;55.18;95340.31;5135012;27;1100;-57
2023/08/25 09:15:23;;;;;;;;;;;;;;;30.38;54.09;95327.56;5135201;27;1013;-57
2023/08/25 09:17:53;;;;;;;;;;;;;;;30.47;55.20;95323.13;5135172;27;1024;-57
2023/08/25 09:20:18;;;;;;;;;;;;;;;30.40;55.72;95323.41;5135453;27;1224;-57
2023/08/25 09:22:52;;;;;;;;;;;;;;;30.50;54.35;95322.53;5135012;27;1056;-57
2023/08/25 09:25:18;;;;;;;;;;;;;;;30.38;54.87;95314.59;5135125;27;1035;-57
2023/08/25 09:27:45;;;;;;;;;;;;;;;30.41;50.21;95310.44;5126380;27;2506;-57
2023/08/25 09:30:11;;;;;;;;;;;;;;;30.64;51.78;95308.94;5114401;28;1024;-57
2023/08/25 09:32:37;;;;;;;;;;;;;;;30.72;52.18;95308.34;5114365;28;1044;-58
2023/08/25 09:35:10;;;;;;;;;;;;;;;30.65;48.01;95313.34;5114642;28;1041;-58
2023/08/25 09:37:40;;;;;;;;;;;;;;;30.48;50.32;95280.59;5114124;28;1044;-58
2023/08/25 09:40:10;;;;;;;;;;;;;;;30.70;52.61;95300.34;5114172;28;1016;-58
2023/08/25 09:42:36;;;;;;;;;;;;;;;30.65;50.10;95299.56;5114073;28;961;-58
2023/08/25 09:45:03;;;;;;;;;;;;;;;30.68;51.43;95286.00;5096113;28;1045;-58
2023/08/25 09:47:29;;;;;;;;;;;;;;;30.74;50.83;95292.31;5114145;28;1901;-58
2023/08/25 09:49:55;;;;;;;;;;;;;;;30.77;49.27;95288.16;5113959;28;969;-58
2023/08/25 09:52:26;;;;;;;;;;;;;;;30.75;46.56;95296.72;5115382;27;2535;-58
2023/08/25 09:54:52;;;;;;;;;;;;;;;30.74;47.83;95286.81;5114068;28;2988;-58
2023/08/25 09:57:19;;;;;;;;;;;;;;;30.80;48.57;95269.09;5115965;27;2865;-58
2023/08/25 09:59:45;;;;;;;;;;;;;;;30.93;48.79;95275.94;5113882;28;1127;-57
2023/08/25 10:02:11;;;;;;;;;;;;;;;30.93;48.88;95276.75;5113805;28;992;-58
2023/08/25 10:04:39;;;;;;;;;;;;;;;30.85;46.92;95276.53;5113999;28;987;-58
2023/08/25 10:07:05;;;;;;;;;;;;;;;30.94;47.34;95266.53;5112826;28;1000;-58
2023/08/25 10:09:31;;;;;;;;;;;;;;;31.11;47.95;95263.38;5113270;28;1910;-58
2023/08/25 10:11:58;;;;;;;;;;;;;;;31.21;46.43;95260.53;5113823;28;974;-58
2023/08/25 10:14:26;;;;;;;;;;;;;;;31.15;47.60;95256.16;5113744;28;1045;-58
2023/08/25 10:16:52;;;;;;;;;;;;;;;31.13;49.22;95250.09;5113960;28;1049;-58
2023/08/25 10:19:27;;;;;;;;;;;;;;;31.02;48.91;95245.78;5114317;28;1217;-58
2023/08/25 10:21:54;;;;;;;;;;;;;;;31.00;46.07;95242.47;5134466;28;992;-58
2023/08/25 10:24:21;;;;;;;;;;;;;;;30.99;46.70;95241.66;5134332;28;1263;-58
2023/08/25 10:26:48;;;;;;;;;;;;;;;31.05;46.90;95239.69;5134290;28;1043;-58
2023/08/25 10:29:15;;;;;;;;;;;;;;;31.12;49.00;95234.66;5134317;28;1987;-58
2023/08/25 10:31:48;;;;;;;;;;;;;;;31.16;46.47;95238.47;5134413;28;1021;-58
2023/08/25 10:34:32;;;;;;;;;;;;;;;31.24;47.98;95237.03;5134260;28;1300;-57
2023/08/25 10:37:03;;;;;;;;;;;;;;;31.39;47.42;95236.88;5134405;28;988;-57
2023/08/25 10:39:48;;;;;;;;;;;;;;;31.35;45.32;95238.59;5126889;28;2507;-57
2023/08/25 10:42:18;;;;;;;;;;;;;;;31.41;47.09;95225.56;5113365;28;922;-58
2023/08/25 10:44:45;;;;;;;;;;;;;;;31.11;42.42;95231.09;5113527;28;1885;-58
2023/08/25 10:47:11;;;;;;;;;;;;;;;31.24;45.60;95220.47;5113222;28;1902;-58
2023/08/25 10:49:38;;;;;;;;;;;;;;;31.47;46.11;95224.41;5113559;28;956;-57
2023/08/25 10:52:19;;;;;;;;;;;;;;;31.52;43.58;95227.13;5113435;28;1048;-58
2023/08/25 10:54:46;;;;;;;;;;;;;;;31.50;46.41;95218.31;5114940;28;1014;-58
2023/08/25 10:57:18;;;;;;;;;;;;;;;31.49;46.50;95220.25;5117240;28;1016;-58
2023/08/25 10:59:53;;;;;;;;;;;;;;;31.51;44.86;95214.41;5117442;28;1031;-58
2023/08/25 11:02:38;;;;;;;;;;;;;;;31.60;45.13;95209.91;5117459;28;1044;-58
2023/08/25 11:05:22;;;;;;;;;;;;;;;31.68;45.74;95208.44;5119446;27;2971;-58
2023/08/25 11:07:48;;;;;;;;;;;;;;;31.57;44.48;95202.22;5116978;28;1953;-58
2023/08/25 11:10:14;;;;;;;;;;;;;;;31.50;41.53;95223.84;5116842;28;1100;-56
2023/08/25 11:12:40;;;;;;;;;;;;;;;31.48;43.78;95210.31;5117116;28;960;-58
2023/08/25 11:15:10;;;;;;;;;;;;;;;31.50;44.80;95207.25;5116886;28;1075;-58
2023/08/25 11:17:36;;;;;;;;;;;;;;;31.44;43.13;95211.16;5117125;28;1008;-57
2023/08/25 11:20:02;;;;;;;;;;;;;;;31.52;41.85;95216.06;5124135;27;1162;-58
2023/08/25 11:22:28;;;;;;;;;;;;;;;31.63;42.43;95200.22;5120303;27;3170;-58
2023/08/25 11:24:54;;;;;;;;;;;;;;;31.73;42.94;95207.56;5116753;28;1080;-57
2023/08/25 11:27:22;;;;;;;;;;;;;;;31.61;43.46;95197.75;5116712;28;1901;-56
2023/08/25 11:29:49;;;;;;;;;;;;;;;31.60;44.50;95192.50;5116609;28;1028;-57
2023/08/25 11:32:15;;;;;;;;;;;;;;;31.65;43.54;95190.50;5116798;28;1052;-56
2023/08/25 11:34:45;;;;;;;;;;;;;;;31.55;42.55;95190.63;5116551;28;969;-57
2023/08/25 11:37:14;;;;;;;;;;;;;;;31.62;44.54;95190.28;5116702;28;1004;-57
2023/08/25 11:39:43;;;;;;;;;;;;;;;31.57;44.18;95191.16;5116736;28;1023;-57
2023/08/25 11:42:09;;;;;;;;;;;;;;;31.67;43.70;95188.28;5116742;28;964;-57
2023/08/25 11:44:40;;;;;;;;;;;;;;;31.75;41.95;95186.78;5116389;28;1044;-57
2023/08/25 11:47:06;;;;;;;;;;;;;;;31.76;39.86;95187.59;5116300;28;1044;-57
2023/08/25 11:49:33;;;;;;;;;;;;;;;31.79;41.94;95179.56;5116418;28;1989;-57
2023/08/25 11:52:00;;;;;;;;;;;;;;;31.73;40.92;95172.44;5116554;28;1064;-57
2023/08/25 11:54:26;;;;;;;;;;;;;;;31.81;39.24;95179.25;5116315;28;1109;-57
2023/08/25 11:56:52;;;;;;;;;;;;;;;32.00;41.85;95174.59;5116239;28;1234;-57
2023/08/25 11:59:18;;;;;;;;;;;;;;;32.00;41.79;95169.06;5115878;27;2531;-57
2023/08/25 12:01:50;;;;;;;;;;;;;;;31.97;42.55;95169.66;5115918;28;1044;-58
2023/08/25 12:04:24;;;;;;;;;;;;;;;31.85;39.52;95167.34;5116110;28;996;-59
2023/08/25 12:06:51;;;;;;;;;;;;;;;31.77;38.32;95172.69;5116062;28;1015;-57
2023/08/25 12:09:17;;;;;;;;;;;;;;;31.77;36.34;95169.94;5115632;28;1990;-57
2023/08/25 12:11:43;;;;;;;;;;;;;;;31.86;38.75;95157.91;5115875;28;950;-56
2023/08/25 12:14:22;;;;;;;;;;;;;;;31.91;38.51;95148.75;5116008;27;2425;-58
2023/08/25 12:16:48;;;;;;;;;;;;;;;31.94;38.36;95153.66;5115785;28;1966;-57
2023/08/25 12:19:15;;;;;;;;;;;;;;;31.94;38.66;95148.13;5117492;27;2682;-57
2023/08/25 12:21:41;;;;;;;;;;;;;;;31.91;39.93;95144.03;5136451;27;999;-57
2023/08/25 12:24:07;;;;;;;;;;;;;;;32.00;39.15;95146.94;5117991;27;992;-57
2023/08/25 12:26:33;;;;;;;;;;;;;;;32.05;37.06;95146.91;5135991;27;1047;-57
2023/08/25 12:28:59;;;;;;;;;;;;;;;32.09;36.69;95150.72;5117724;27;1910;-57
2023/08/25 12:31:25;;;;;;;;;;;;;;;32.14;36.43;95143.47;5136092;27;980;-57
2023/08/25 12:33:51;;;;;;;;;;;;;;;32.16;36.28;95141.25;5136176;27;917;-57
2023/08/25 12:36:17;;;;;;;;;;;;;;;32.16;37.61;95138.50;5136141;27;1004;-57
2023/08/25 12:38:43;;;;;;;;;;;;;;;32.24;39.38;95132.28;5135816;27;1094;-56
2023/08/25 12:41:09;;;;;;;;;;;;;;;32.21;38.22;95122.63;5120120;27;2914;-56
2023/08/25 12:43:35;;;;;;;;;;;;;;;32.27;38.87;95126.13;5115146;28;1099;-57
2023/08/25 12:46:01;;;;;;;;;;;;;;;32.38;38.20;95127.63;5113886;28;1115;-56
2023/08/25 12:48:27;;;;;;;;;;;;;;;32.36;39.76;95113.25;5114671;28;2000;-57
2023/08/25 12:50:53;;;;;;;;;;;;;;;32.26;36.83;95121.72;5114765;28;1066;-56
2023/08/25 12:53:20;;;;;;;;;;;;;;;32.24;36.57;95121.22;5114909;28;996;-56
2023/08/25 12:55:46;;;;;;;;;;;;;;;32.27;38.13;95109.53;5114930;28;991;-57